createdAt,value
2018-09-24T00:00:27.516Z,20.46
2018-09-24T00:01:27.753Z,20.40
2018-09-24T00:02:27.552Z,20.37
2018-09-24T00:03:27.606Z,20.39
2018-09-24T00:04:27.704Z,20.36
2018-09-24T00:05:27.591Z,20.27
2018-09-24T00:06:27.836Z,20.30
2018-09-24T00:07:27.624Z,20.18
2018-09-24T00:08:27.769Z,20.04
2018-09-24T00:09:27.776Z,20.00
2018-09-24T00:10:27.793Z,19.93
2018-09-24T00:11:27.913Z,19.97
2018-09-24T00:12:27.706Z,19.82
2018-09-24T00:13:27.751Z,19.81
2018-09-24T00:14:27.741Z,19.75
2018-09-24T00:15:27.760Z,19.67
2018-09-24T00:16:27.857Z,19.60
2018-09-24T00:17:27.789Z,19.59
2018-09-24T00:18:27.797Z,19.57
2018-09-24T00:19:27.820Z,19.63
2018-09-24T00:20:27.823Z,19.60
2018-09-24T00:21:27.893Z,19.62
2018-09-24T00:22:27.868Z,19.71
2018-09-24T00:23:27.994Z,19.66
2018-09-24T00:24:27.912Z,19.66
2018-09-24T00:25:27.899Z,19.64
2018-09-24T00:26:28.190Z,19.67
2018-09-24T00:27:27.920Z,19.66
2018-09-24T00:28:27.946Z,19.64
2018-09-24T00:29:27.975Z,19.62
2018-09-24T00:30:28.099Z,19.57
2018-09-24T00:31:28.088Z,19.66
2018-09-24T00:32:28.130Z,19.59
2018-09-24T00:33:28.142Z,19.47
2018-09-24T00:34:28.032Z,19.47
2018-09-24T00:35:28.050Z,19.44
2018-09-24T00:36:28.219Z,19.32
2018-09-24T00:37:28.087Z,19.29
2018-09-24T00:38:28.220Z,19.29
2018-09-24T00:39:28.107Z,19.24
2018-09-24T00:40:28.131Z,19.34
2018-09-24T00:41:28.314Z,19.24
2018-09-24T00:42:28.160Z,19.26
2018-09-24T00:43:28.232Z,19.17
2018-09-24T00:44:28.182Z,19.22
2018-09-24T00:45:28.198Z,19.24
2018-09-24T00:46:28.271Z,19.19
2018-09-24T00:47:28.234Z,19.23
2018-09-24T00:48:28.372Z,19.09
2018-09-24T00:49:28.257Z,19.09
2018-09-24T00:50:28.403Z,19.08
2018-09-24T00:51:28.524Z,19.08
2018-09-24T00:52:28.317Z,19.05
2018-09-24T00:53:28.440Z,19.08
2018-09-24T00:54:28.330Z,19.04
2018-09-24T00:55:28.398Z,18.97
2018-09-24T00:56:28.458Z,19.01
2018-09-24T00:57:28.503Z,18.89
2018-09-24T00:58:28.399Z,18.91
2018-09-24T00:59:28.533Z,18.82
2018-09-24T01:00:28.433Z,18.88
2018-09-24T01:01:28.659Z,18.88
2018-09-24T01:02:28.457Z,18.74
2018-09-24T01:03:28.513Z,18.76
2018-09-24T01:04:28.539Z,18.78
2018-09-24T01:05:28.499Z,18.66
2018-09-24T01:06:28.613Z,18.68
2018-09-24T01:07:28.529Z,18.71
2018-09-24T01:08:28.547Z,18.76
2018-09-24T01:09:28.683Z,18.64
2018-09-24T01:10:28.692Z,18.57
2018-09-24T01:11:28.675Z,18.58
2018-09-24T01:12:28.600Z,18.55
2018-09-24T01:13:28.608Z,18.51
2018-09-24T01:14:28.628Z,18.53
2018-09-24T01:15:28.646Z,18.52
2018-09-24T01:16:28.888Z,18.49
2018-09-24T01:17:28.672Z,18.43
2018-09-24T01:18:28.688Z,18.45
2018-09-24T01:19:28.752Z,18.39
2018-09-24T01:20:28.728Z,18.33
2018-09-24T01:21:28.824Z,18.34
2018-09-24T01:22:28.738Z,18.39
2018-09-24T01:23:28.883Z,18.46
2018-09-24T01:24:28.905Z,18.52
2018-09-24T01:25:28.889Z,18.46
2018-09-24T01:26:28.797Z,18.49
2018-09-24T01:27:28.947Z,18.46
2018-09-24T01:28:28.834Z,18.46
2018-09-24T01:29:28.848Z,18.61
2018-09-24T01:30:29.086Z,18.58
2018-09-24T01:31:29.010Z,18.53
2018-09-24T01:32:28.890Z,18.57
2018-09-24T01:33:28.910Z,18.52
2018-09-24T01:34:28.918Z,18.61
2018-09-24T01:35:29.166Z,18.58
2018-09-24T01:36:28.951Z,18.71
2018-09-24T01:37:29.092Z,18.67
2018-09-24T01:38:29.102Z,18.71
2018-09-24T01:39:29.124Z,18.60
2018-09-24T01:40:29.167Z,18.71
2018-09-24T01:41:29.024Z,18.58
2018-09-24T01:42:29.088Z,18.64
2018-09-24T01:43:29.183Z,18.67
2018-09-24T01:44:29.063Z,18.66
2018-09-24T01:45:29.192Z,18.64
2018-09-24T01:46:29.134Z,18.76
2018-09-24T01:47:29.114Z,18.71
2018-09-24T01:48:29.249Z,18.66
2018-09-24T01:49:29.261Z,18.64
2018-09-24T01:50:29.321Z,18.64
2018-09-24T01:51:29.295Z,18.64
2018-09-24T01:52:29.312Z,18.73
2018-09-24T01:53:29.203Z,18.57
2018-09-24T01:54:29.337Z,18.61
2018-09-24T01:55:29.450Z,18.61
2018-09-24T01:56:29.236Z,18.66
2018-09-24T01:57:29.269Z,18.68
2018-09-24T01:58:29.395Z,18.67
2018-09-24T01:59:29.278Z,18.67
2018-09-24T02:00:29.449Z,18.61
2018-09-24T02:01:29.435Z,18.55
2018-09-24T02:02:29.342Z,18.63
2018-09-24T02:03:29.342Z,18.45
2018-09-24T02:04:29.354Z,18.49
2018-09-24T02:05:29.473Z,18.53
2018-09-24T02:06:29.377Z,18.45
2018-09-24T02:07:29.392Z,18.45
2018-09-24T02:08:29.425Z,18.52
2018-09-24T02:09:29.547Z,18.51
2018-09-24T02:10:29.539Z,18.49
2018-09-24T02:11:29.477Z,18.52
2018-09-24T02:12:29.495Z,18.58
2018-09-24T02:13:29.483Z,18.61
2018-09-24T02:14:29.617Z,18.57
2018-09-24T02:15:29.562Z,18.51
2018-09-24T02:16:29.540Z,18.49
2018-09-24T02:17:29.683Z,18.51
2018-09-24T02:18:29.553Z,18.42
2018-09-24T02:19:29.607Z,18.36
2018-09-24T02:20:29.706Z,18.42
2018-09-24T02:21:29.602Z,18.37
2018-09-24T02:22:29.717Z,18.39
2018-09-24T02:23:29.627Z,18.45
2018-09-24T02:24:29.636Z,18.48
2018-09-24T02:25:29.778Z,18.37
2018-09-24T02:26:29.793Z,18.33
2018-09-24T02:27:29.779Z,18.37
2018-09-24T02:28:29.701Z,18.19
2018-09-24T02:29:29.723Z,18.16
2018-09-24T02:30:29.720Z,18.19
2018-09-24T02:31:29.744Z,18.28
2018-09-24T02:32:29.803Z,18.30
2018-09-24T02:33:29.754Z,18.34
2018-09-24T02:34:29.903Z,18.31
2018-09-24T02:35:29.924Z,18.33
2018-09-24T02:36:29.821Z,18.34
2018-09-24T02:37:29.999Z,18.34
2018-09-24T02:38:29.853Z,18.28
2018-09-24T02:39:29.976Z,18.24
2018-09-24T02:40:29.987Z,18.33
2018-09-24T02:41:29.924Z,18.23
2018-09-24T02:42:29.957Z,18.31
2018-09-24T02:43:29.952Z,18.26
2018-09-24T02:44:30.074Z,18.21
2018-09-24T02:45:30.063Z,18.19
2018-09-24T02:46:29.950Z,18.24
2018-09-24T02:47:29.967Z,18.23
2018-09-24T02:48:30.100Z,18.26
2018-09-24T02:49:30.214Z,18.19
2018-09-24T02:50:30.132Z,18.11
2018-09-24T02:51:30.038Z,17.98
2018-09-24T02:52:30.163Z,18.02
2018-09-24T02:53:30.046Z,17.93
2018-09-24T02:54:30.121Z,17.82
2018-09-24T02:55:30.197Z,17.90
2018-09-24T02:56:30.090Z,17.95
2018-09-24T02:57:30.256Z,17.93
2018-09-24T02:58:30.113Z,17.87
2018-09-24T02:59:30.167Z,17.84
2018-09-24T03:00:30.153Z,17.88
2018-09-24T03:01:30.224Z,17.95
2018-09-24T03:02:30.228Z,17.88
2018-09-24T03:03:30.311Z,17.90
2018-09-24T03:04:30.324Z,17.71
2018-09-24T03:05:30.265Z,17.86
2018-09-24T03:06:30.235Z,17.82
2018-09-24T03:07:30.248Z,17.86
2018-09-24T03:08:30.382Z,17.82
2018-09-24T03:09:30.260Z,17.86
2018-09-24T03:10:30.559Z,17.87
2018-09-24T03:11:30.422Z,17.86
2018-09-24T03:12:30.443Z,17.84
2018-09-24T03:13:30.454Z,17.84
2018-09-24T03:14:30.354Z,17.84
2018-09-24T03:15:30.529Z,17.91
2018-09-24T03:16:30.375Z,17.98
2018-09-24T03:17:30.387Z,18.00
2018-09-24T03:18:30.398Z,17.95
2018-09-24T03:19:30.416Z,18.02
2018-09-24T03:20:30.473Z,18.00
2018-09-24T03:21:30.539Z,17.95
2018-09-24T03:22:30.498Z,17.93
2018-09-24T03:23:30.588Z,17.95
2018-09-24T03:24:30.475Z,17.95
2018-09-24T03:25:30.492Z,17.87
2018-09-24T03:26:30.563Z,17.82
2018-09-24T03:27:30.647Z,17.78
2018-09-24T03:28:30.531Z,17.71
2018-09-24T03:29:30.673Z,17.87
2018-09-24T03:30:30.786Z,17.75
2018-09-24T03:31:30.584Z,17.84
2018-09-24T03:32:30.601Z,17.80
2018-09-24T03:33:30.725Z,17.78
2018-09-24T03:34:30.615Z,17.72
2018-09-24T03:35:30.721Z,17.72
2018-09-24T03:36:30.644Z,17.75
2018-09-24T03:37:30.758Z,17.68
2018-09-24T03:38:30.798Z,17.73
2018-09-24T03:39:30.810Z,17.78
2018-09-24T03:40:30.704Z,17.73
2018-09-24T03:41:30.725Z,17.78
2018-09-24T03:42:31.009Z,17.82
2018-09-24T03:43:30.738Z,17.76
2018-09-24T03:44:30.762Z,17.87
2018-09-24T03:45:30.788Z,17.78
2018-09-24T03:46:30.909Z,17.80
2018-09-24T03:47:31.024Z,17.86
2018-09-24T03:48:30.800Z,17.87
2018-09-24T03:49:30.820Z,17.75
2018-09-24T03:50:30.835Z,17.72
2018-09-24T03:51:30.849Z,17.79
2018-09-24T03:52:31.016Z,17.76
2018-09-24T03:53:30.870Z,17.86
2018-09-24T03:54:31.014Z,17.76
2018-09-24T03:55:31.031Z,17.75
2018-09-24T03:56:30.925Z,17.66
2018-09-24T03:57:31.034Z,17.65
2018-09-24T03:58:31.076Z,17.60
2018-09-24T03:59:30.975Z,17.59
2018-09-24T04:00:31.095Z,17.54
2018-09-24T04:01:31.000Z,17.56
2018-09-24T04:02:31.110Z,17.66
2018-09-24T04:03:31.021Z,17.57
2018-09-24T04:04:31.159Z,17.53
2018-09-24T04:05:31.165Z,17.52
2018-09-24T04:06:31.057Z,17.42
2018-09-24T04:07:31.245Z,17.52
2018-09-24T04:08:31.094Z,17.39
2018-09-24T04:09:31.123Z,17.56
2018-09-24T04:10:31.236Z,17.41
2018-09-24T04:11:31.252Z,17.34
2018-09-24T04:12:31.225Z,17.37
2018-09-24T04:13:31.146Z,17.28
2018-09-24T04:14:31.287Z,17.13
2018-09-24T04:15:31.176Z,17.17
2018-09-24T04:16:31.227Z,17.04
2018-09-24T04:17:31.384Z,17.02
2018-09-24T04:18:31.347Z,16.98
2018-09-24T04:19:31.373Z,16.97
2018-09-24T04:20:31.374Z,16.91
2018-09-24T04:21:31.250Z,16.91
2018-09-24T04:22:31.430Z,16.87
2018-09-24T04:23:31.289Z,16.82
2018-09-24T04:24:31.425Z,16.91
2018-09-24T04:25:31.312Z,16.82
2018-09-24T04:26:31.455Z,16.89
2018-09-24T04:27:31.620Z,16.91
2018-09-24T04:28:31.476Z,16.87
2018-09-24T04:29:31.401Z,16.95
2018-09-24T04:30:31.379Z,16.98
2018-09-24T04:31:31.390Z,16.98
2018-09-24T04:32:31.584Z,16.87
2018-09-24T04:33:31.542Z,16.97
2018-09-24T04:34:31.440Z,16.95
2018-09-24T04:35:31.442Z,16.99
2018-09-24T04:36:31.585Z,16.98
2018-09-24T04:37:31.624Z,16.92
2018-09-24T04:38:31.487Z,17.01
2018-09-24T04:39:31.683Z,17.05
2018-09-24T04:40:31.555Z,17.04
2018-09-24T04:41:31.569Z,17.04
2018-09-24T04:42:31.687Z,17.04
2018-09-24T04:43:31.546Z,17.14
2018-09-24T04:44:31.569Z,17.20
2018-09-24T04:45:31.705Z,17.16
2018-09-24T04:46:31.609Z,17.30
2018-09-24T04:47:31.887Z,17.34
2018-09-24T04:48:31.618Z,17.20
2018-09-24T04:49:31.758Z,17.19
2018-09-24T04:50:31.774Z,17.31
2018-09-24T04:51:31.663Z,17.34
2018-09-24T04:52:31.782Z,17.42
2018-09-24T04:53:31.699Z,17.47
2018-09-24T04:54:31.723Z,17.42
2018-09-24T04:55:31.716Z,17.44
2018-09-24T04:56:31.730Z,17.37
2018-09-24T04:57:32.014Z,17.30
2018-09-24T04:58:31.909Z,17.27
2018-09-24T04:59:31.774Z,17.38
2018-09-24T05:00:31.913Z,17.27
2018-09-24T05:01:31.922Z,17.30
2018-09-24T05:02:31.988Z,17.27
2018-09-24T05:03:31.952Z,17.30
2018-09-24T05:04:31.959Z,17.28
2018-09-24T05:05:31.977Z,17.27
2018-09-24T05:06:31.864Z,17.27
2018-09-24T05:07:32.104Z,17.24
2018-09-24T05:08:31.924Z,17.13
2018-09-24T05:09:32.028Z,17.17
2018-09-24T05:10:31.959Z,17.14
2018-09-24T05:11:31.932Z,17.16
2018-09-24T05:12:32.103Z,17.22
2018-09-24T05:13:31.953Z,17.19
2018-09-24T05:14:31.973Z,17.17
2018-09-24T05:15:32.019Z,17.16
2018-09-24T05:16:32.168Z,17.24
2018-09-24T05:17:32.183Z,17.14
2018-09-24T05:18:32.031Z,17.22
2018-09-24T05:19:32.025Z,17.19
2018-09-24T05:20:32.046Z,17.19
2018-09-24T05:21:32.067Z,17.17
2018-09-24T05:22:32.124Z,17.14
2018-09-24T05:23:32.083Z,17.14
2018-09-24T05:24:32.257Z,17.09
2018-09-24T05:25:32.118Z,17.13
2018-09-24T05:26:32.124Z,17.14
2018-09-24T05:27:32.140Z,17.10
2018-09-24T05:28:32.276Z,17.13
2018-09-24T05:29:35.582Z,17.10
2018-09-24T05:30:32.185Z,17.13
2018-09-24T05:31:32.194Z,17.05
2018-09-24T05:32:32.379Z,17.07
2018-09-24T05:33:32.218Z,17.07
2018-09-24T05:34:32.444Z,17.10
2018-09-24T05:35:32.520Z,17.10
2018-09-24T05:36:32.262Z,17.04
2018-09-24T05:37:32.267Z,17.13
2018-09-24T05:38:32.413Z,17.13
2018-09-24T05:39:32.298Z,17.04
2018-09-24T05:40:32.456Z,17.10
2018-09-24T05:41:32.313Z,17.10
2018-09-24T05:42:32.349Z,17.02
2018-09-24T05:43:32.361Z,16.97
2018-09-24T05:44:32.368Z,17.01
2018-09-24T05:45:32.555Z,17.01
2018-09-24T05:46:32.397Z,16.87
2018-09-24T05:47:32.395Z,16.92
2018-09-24T05:48:32.544Z,16.95
2018-09-24T05:49:32.585Z,16.99
2018-09-24T05:50:32.442Z,16.94
2018-09-24T05:51:32.462Z,16.86
2018-09-24T05:52:32.472Z,16.82
2018-09-24T05:53:32.471Z,16.83
2018-09-24T05:54:32.493Z,16.82
2018-09-24T05:55:32.652Z,16.76
2018-09-24T05:56:32.530Z,16.72
2018-09-24T05:57:32.532Z,16.62
2018-09-24T05:58:32.579Z,16.54
2018-09-24T05:59:32.681Z,16.49
2018-09-24T06:00:32.723Z,16.40
2018-09-24T06:01:32.584Z,16.39
2018-09-24T06:02:32.722Z,16.31
2018-09-24T06:03:32.733Z,16.49
2018-09-24T06:04:32.799Z,16.49
2018-09-24T06:05:32.778Z,16.54
2018-09-24T06:06:32.656Z,16.49
2018-09-24T06:07:32.671Z,16.46
2018-09-24T06:08:32.805Z,16.41
2018-09-24T06:09:32.684Z,16.54
2018-09-24T06:10:32.853Z,16.46
2018-09-24T06:11:32.841Z,16.51
2018-09-24T06:12:32.739Z,16.57
2018-09-24T06:13:32.824Z,16.44
2018-09-24T06:14:32.881Z,16.49
2018-09-24T06:15:32.913Z,16.51
2018-09-24T06:16:32.902Z,16.50
2018-09-24T06:17:32.790Z,16.44
2018-09-24T06:18:32.928Z,16.41
2018-09-24T06:19:32.941Z,16.44
2018-09-24T06:20:33.016Z,16.41
2018-09-24T06:21:32.872Z,16.40
2018-09-24T06:22:32.988Z,16.40
2018-09-24T06:23:32.874Z,16.40
2018-09-24T06:24:33.008Z,16.41
2018-09-24T06:25:33.052Z,16.46
2018-09-24T06:26:32.926Z,16.43
2018-09-24T06:27:33.045Z,16.43
2018-09-24T06:28:32.974Z,16.39
2018-09-24T06:29:32.944Z,16.46
2018-09-24T06:30:33.237Z,16.50
2018-09-24T06:31:33.095Z,16.51
2018-09-24T06:32:33.111Z,16.39
2018-09-24T06:33:32.997Z,16.44
2018-09-24T06:34:33.133Z,16.41
2018-09-24T06:35:33.499Z,16.44
2018-09-24T06:36:33.078Z,16.41
2018-09-24T06:37:33.105Z,16.37
2018-09-24T06:38:33.083Z,16.40
2018-09-24T06:39:33.078Z,16.43
2018-09-24T06:40:33.176Z,16.32
2018-09-24T06:41:33.101Z,16.28
2018-09-24T06:42:33.117Z,16.37
2018-09-24T06:43:33.409Z,16.34
2018-09-24T06:44:33.265Z,16.31
2018-09-24T06:45:33.273Z,16.22
2018-09-24T06:46:33.286Z,16.26
2018-09-24T06:47:33.302Z,16.17
2018-09-24T06:48:33.361Z,16.25
2018-09-24T06:49:33.211Z,16.26
2018-09-24T06:50:33.364Z,16.17
2018-09-24T06:51:33.225Z,16.22
2018-09-24T06:52:33.369Z,16.22
2018-09-24T06:53:33.261Z,16.09
2018-09-24T06:54:33.272Z,16.09
2018-09-24T06:55:33.440Z,16.21
2018-09-24T06:56:33.419Z,16.18
2018-09-24T06:57:33.295Z,16.24
2018-09-24T06:58:33.324Z,16.08
2018-09-24T06:59:33.422Z,16.12
2018-09-24T07:00:33.364Z,16.05
2018-09-24T07:01:33.540Z,16.12
2018-09-24T07:02:33.496Z,16.09
2018-09-24T07:03:33.379Z,16.09
2018-09-24T07:04:33.405Z,16.18
2018-09-24T07:05:33.656Z,16.12
2018-09-24T07:06:33.574Z,16.16
2018-09-24T07:07:33.425Z,16.12
2018-09-24T07:08:33.568Z,16.06
2018-09-24T07:09:33.460Z,16.06
2018-09-24T07:10:33.467Z,16.02
2018-09-24T07:11:33.541Z,16.06
2018-09-24T07:12:33.496Z,16.06
2018-09-24T07:13:33.634Z,15.98
2018-09-24T07:14:33.646Z,15.96
2018-09-24T07:15:33.530Z,15.88
2018-09-24T07:16:33.704Z,15.84
2018-09-24T07:17:33.563Z,15.84
2018-09-24T07:18:33.699Z,15.76
2018-09-24T07:19:33.706Z,15.88
2018-09-24T07:20:33.726Z,15.87
2018-09-24T07:21:33.893Z,15.90
2018-09-24T07:22:33.630Z,15.78
2018-09-24T07:23:33.638Z,15.81
2018-09-24T07:24:33.777Z,15.83
2018-09-24T07:25:33.789Z,15.81
2018-09-24T07:26:33.839Z,15.78
2018-09-24T07:27:33.740Z,15.78
2018-09-24T07:28:33.733Z,15.84
2018-09-24T07:29:33.700Z,15.78
2018-09-24T07:30:33.728Z,15.66
2018-09-24T07:31:34.014Z,15.65
2018-09-24T07:32:33.745Z,15.67
2018-09-24T07:33:33.886Z,15.62
2018-09-24T07:34:33.770Z,15.62
2018-09-24T07:35:33.913Z,15.66
2018-09-24T07:36:34.073Z,15.66
2018-09-24T07:37:33.936Z,15.55
2018-09-24T07:38:33.951Z,15.47
2018-09-24T07:39:33.839Z,15.45
2018-09-24T07:40:33.860Z,15.39
2018-09-24T07:41:34.023Z,15.45
2018-09-24T07:42:33.876Z,15.41
2018-09-24T07:43:33.992Z,15.41
2018-09-24T07:44:34.027Z,15.27
2018-09-24T07:45:33.913Z,15.30
2018-09-24T07:46:33.990Z,15.27
2018-09-24T07:47:34.061Z,15.14
2018-09-24T07:48:34.228Z,15.15
2018-09-24T07:49:33.971Z,15.19
2018-09-24T07:50:33.967Z,15.14
2018-09-24T07:51:33.999Z,15.23
2018-09-24T07:52:34.127Z,15.17
2018-09-24T07:53:34.166Z,15.18
2018-09-24T07:54:34.060Z,15.29
2018-09-24T07:55:34.223Z,15.22
2018-09-24T07:56:34.049Z,15.26
2018-09-24T07:57:34.184Z,15.39
2018-09-24T07:58:34.121Z,15.47
2018-09-24T07:59:34.364Z,15.39
2018-09-24T08:00:34.218Z,15.32
2018-09-24T08:01:34.237Z,15.33
2018-09-24T08:02:34.247Z,15.30
2018-09-24T08:03:34.259Z,15.35
2018-09-24T08:04:34.570Z,15.27
2018-09-24T08:05:34.163Z,15.30
2018-09-24T08:06:34.211Z,15.27
2018-09-24T08:07:34.331Z,15.19
2018-09-24T08:08:34.325Z,15.19
2018-09-24T08:09:34.488Z,15.12
2018-09-24T08:10:34.235Z,15.07
2018-09-24T08:11:34.234Z,15.00
2018-09-24T08:12:34.240Z,14.94
2018-09-24T08:13:34.384Z,15.02
2018-09-24T08:14:34.446Z,14.90
2018-09-24T08:15:34.415Z,15.02
2018-09-24T08:16:34.427Z,14.96
2018-09-24T08:17:34.435Z,15.02
2018-09-24T08:18:34.596Z,15.08
2018-09-24T08:19:34.457Z,15.07
2018-09-24T08:20:34.467Z,15.07
2018-09-24T08:21:34.481Z,15.17
2018-09-24T08:22:34.497Z,15.18
2018-09-24T08:23:34.546Z,14.99
2018-09-24T08:24:34.389Z,15.02
2018-09-24T08:25:34.426Z,15.18
2018-09-24T08:26:34.540Z,15.15
2018-09-24T08:27:34.554Z,15.17
2018-09-24T08:28:34.600Z,15.19
2018-09-24T08:29:34.453Z,15.18
2018-09-24T08:30:34.481Z,15.15
2018-09-24T08:31:34.478Z,15.30
2018-09-24T08:32:34.478Z,15.29
2018-09-24T08:33:34.561Z,15.43
2018-09-24T08:34:34.522Z,15.45
2018-09-24T08:35:34.652Z,15.29
2018-09-24T08:36:34.710Z,15.30
2018-09-24T08:37:34.680Z,15.26
2018-09-24T08:38:34.564Z,15.33
2018-09-24T08:39:34.700Z,15.29
2018-09-24T08:40:34.718Z,15.14
2018-09-24T08:41:34.776Z,15.23
2018-09-24T08:42:34.782Z,15.18
2018-09-24T08:43:34.753Z,15.18
2018-09-24T08:44:34.762Z,15.12
2018-09-24T08:45:34.646Z,15.14
2018-09-24T08:46:34.661Z,15.08
2018-09-24T08:47:34.849Z,14.99
2018-09-24T08:48:34.676Z,14.96
2018-09-24T08:49:34.736Z,14.94
2018-09-24T08:50:34.837Z,14.92
2018-09-24T08:51:34.724Z,14.97
2018-09-24T08:52:34.890Z,14.97
2018-09-24T08:53:34.753Z,14.92
2018-09-24T08:54:34.767Z,14.93
2018-09-24T08:55:34.786Z,14.87
2018-09-24T08:56:34.990Z,14.89
2018-09-24T08:57:35.071Z,14.92
2018-09-24T08:58:34.816Z,14.97
2018-09-24T08:59:34.945Z,14.96
2018-09-24T09:00:34.847Z,14.90
2018-09-24T09:01:34.838Z,14.94
2018-09-24T09:02:35.022Z,14.89
2018-09-24T09:03:34.992Z,15.02
2018-09-24T09:04:34.879Z,15.04
2018-09-24T09:05:34.898Z,15.25
2018-09-24T09:06:34.905Z,15.30
2018-09-24T09:07:35.073Z,15.29
2018-09-24T09:08:34.935Z,15.25
2018-09-24T09:09:34.943Z,15.37
2018-09-24T09:10:35.082Z,15.48
2018-09-24T09:11:34.971Z,15.51
2018-09-24T09:12:35.125Z,15.52
2018-09-24T09:13:35.116Z,15.54
2018-09-24T09:14:35.011Z,15.65
2018-09-24T09:15:35.161Z,15.65
2018-09-24T09:16:35.034Z,15.78
2018-09-24T09:17:35.319Z,15.81
2018-09-24T09:18:35.059Z,15.80
2018-09-24T09:19:35.067Z,16.03
2018-09-24T09:20:35.202Z,16.12
2018-09-24T09:21:35.092Z,16.37
2018-09-24T09:22:35.161Z,16.32
2018-09-24T09:23:35.280Z,16.47
2018-09-24T09:24:35.141Z,16.68
2018-09-24T09:25:35.146Z,16.80
2018-09-24T09:26:35.288Z,17.01
2018-09-24T09:27:35.293Z,17.05
2018-09-24T09:28:35.346Z,17.19
2018-09-24T09:29:35.423Z,17.39
2018-09-24T09:30:35.343Z,17.41
2018-09-24T09:31:35.353Z,17.65
2018-09-24T09:32:35.362Z,17.84
2018-09-24T09:33:35.525Z,17.78
2018-09-24T09:34:35.393Z,18.03
2018-09-24T09:35:35.404Z,18.12
2018-09-24T09:36:35.330Z,18.28
2018-09-24T09:37:35.319Z,18.46
2018-09-24T09:38:35.514Z,18.60
2018-09-24T09:39:35.338Z,18.78
2018-09-24T09:40:35.482Z,18.94
2018-09-24T09:41:35.495Z,19.08
2018-09-24T09:42:35.509Z,19.24
2018-09-24T09:43:35.559Z,19.48
2018-09-24T09:44:35.410Z,19.70
2018-09-24T09:45:35.440Z,19.74
2018-09-24T09:46:35.582Z,20.04
2018-09-24T09:47:35.462Z,20.12
2018-09-24T09:48:35.655Z,20.37
2018-09-24T09:49:35.545Z,20.58
2018-09-24T09:50:35.513Z,20.68
2018-09-24T09:51:35.659Z,20.85
2018-09-24T09:52:35.545Z,21.00
2018-09-24T09:53:35.791Z,21.15
2018-09-24T09:54:35.591Z,21.32
2018-09-24T09:55:35.643Z,21.56
2018-09-24T09:56:35.619Z,21.78
2018-09-24T09:57:35.761Z,21.85
2018-09-24T09:58:35.929Z,22.12
2018-09-24T09:59:35.789Z,22.36
2018-09-24T10:00:35.685Z,22.51
2018-09-24T10:01:35.703Z,22.63
2018-09-24T10:02:35.843Z,22.78
2018-09-24T10:03:35.892Z,22.95
2018-09-24T10:04:35.812Z,23.20
2018-09-24T10:05:35.899Z,23.47
2018-09-24T10:06:35.813Z,23.59
2018-09-24T10:07:35.805Z,23.81
2018-09-24T10:08:35.984Z,24.00
2018-09-24T10:09:35.844Z,24.18
2018-09-24T10:10:35.999Z,24.34
2018-09-24T10:11:35.896Z,24.51
2018-09-24T10:12:35.908Z,24.59
2018-09-24T10:13:36.066Z,24.81
2018-09-24T10:14:36.068Z,24.93
2018-09-24T10:15:36.095Z,25.03
2018-09-24T10:16:36.108Z,25.16
2018-09-24T10:17:36.006Z,25.26
2018-09-24T10:18:36.174Z,25.43
2018-09-24T10:19:36.040Z,25.66
2018-09-24T10:20:36.102Z,25.78
2018-09-24T10:21:36.204Z,25.92
2018-09-24T10:22:36.173Z,26.13
2018-09-24T10:23:36.281Z,26.24
2018-09-24T10:24:36.139Z,26.48
2018-09-24T10:25:36.163Z,26.61
2018-09-24T10:26:36.176Z,26.64
2018-09-24T10:27:36.327Z,26.89
2018-09-24T10:28:36.369Z,27.05
2018-09-24T10:29:36.243Z,27.29
2018-09-24T10:30:36.394Z,27.50
2018-09-24T10:31:36.281Z,27.64
2018-09-24T10:32:36.459Z,27.75
2018-09-24T10:33:36.492Z,27.79
2018-09-24T10:34:36.472Z,27.85
2018-09-24T10:35:36.361Z,28.10
2018-09-24T10:36:36.521Z,28.15
2018-09-24T10:37:36.427Z,28.28
2018-09-24T10:38:36.628Z,28.27
2018-09-24T10:39:36.562Z,28.27
2018-09-24T10:40:36.596Z,28.40
2018-09-24T10:41:36.635Z,28.49
2018-09-24T10:42:36.529Z,28.62
2018-09-24T10:43:36.819Z,28.64
2018-09-24T10:44:36.570Z,28.77
2018-09-24T10:45:36.583Z,28.84
2018-09-24T10:46:36.734Z,29.03
2018-09-24T10:47:36.656Z,29.03
2018-09-24T10:48:36.706Z,29.12
2018-09-24T10:49:36.797Z,29.43
2018-09-24T10:50:36.691Z,29.65
2018-09-24T10:51:36.868Z,29.89
2018-09-24T10:52:36.756Z,30.08
2018-09-24T10:53:36.762Z,30.26
2018-09-24T10:54:36.798Z,30.56
2018-09-24T10:55:36.882Z,30.73
2018-09-24T10:56:36.981Z,30.89
2018-09-24T10:57:36.866Z,31.08
2018-09-24T10:58:37.003Z,31.41
2018-09-24T10:59:36.979Z,31.41
2018-09-24T11:00:36.942Z,31.59
2018-09-24T11:01:37.073Z,31.78
2018-09-24T11:02:36.990Z,31.92
2018-09-24T11:03:36.992Z,32.16
2018-09-24T11:04:37.437Z,32.53
2018-09-24T11:05:37.044Z,32.59
2018-09-24T11:06:37.196Z,32.57
2018-09-24T11:07:37.097Z,32.60
2018-09-24T11:08:37.157Z,32.67
2018-09-24T11:09:37.313Z,32.82
2018-09-24T11:10:37.210Z,32.83
2018-09-24T11:11:37.460Z,32.95
2018-09-24T11:12:37.208Z,32.85
2018-09-24T11:13:37.368Z,32.72
2018-09-24T11:14:37.261Z,32.90
2018-09-24T11:15:37.482Z,32.81
2018-09-24T11:16:37.840Z,32.83
2018-09-24T11:17:37.655Z,32.76
2018-09-24T11:18:37.487Z,32.60
2018-09-24T11:19:37.514Z,32.35
2018-09-24T11:20:37.419Z,32.27
2018-09-24T11:21:37.597Z,32.12
2018-09-24T11:22:37.587Z,31.92
2018-09-24T11:23:37.629Z,31.66
2018-09-24T11:24:37.508Z,31.37
2018-09-24T11:25:37.527Z,31.17
2018-09-24T11:26:37.779Z,31.00
2018-09-24T11:27:37.703Z,30.74
2018-09-24T11:28:37.727Z,30.73
2018-09-24T11:29:37.767Z,30.55
2018-09-24T11:30:37.652Z,30.24
2018-09-24T11:31:37.953Z,30.08
2018-09-24T11:32:37.753Z,29.87
2018-09-24T11:33:37.729Z,29.74
2018-09-24T11:34:37.754Z,29.64
2018-09-24T11:35:37.778Z,29.59
2018-09-24T11:36:38.020Z,29.61
2018-09-24T11:37:37.836Z,29.67
2018-09-24T11:38:37.834Z,29.73
2018-09-24T11:39:37.982Z,29.74
2018-09-24T11:40:37.886Z,29.81
2018-09-24T11:41:37.957Z,29.95
2018-09-24T11:42:37.921Z,30.05
2018-09-24T11:43:37.933Z,30.31
2018-09-24T11:44:37.963Z,30.26
2018-09-24T11:45:38.141Z,30.31
2018-09-24T11:46:38.134Z,30.26
2018-09-24T11:47:38.145Z,30.21
2018-09-24T11:48:38.042Z,30.14
2018-09-24T11:49:38.192Z,29.95
2018-09-24T11:50:38.129Z,29.68
2018-09-24T11:51:38.105Z,29.71
2018-09-24T11:52:38.223Z,29.68
2018-09-24T11:53:38.274Z,29.74
2018-09-24T11:54:38.170Z,30.06
2018-09-24T11:55:38.308Z,30.24
2018-09-24T11:56:38.208Z,30.62
2018-09-24T11:57:38.284Z,30.89
2018-09-24T11:58:38.253Z,31.32
2018-09-24T11:59:38.393Z,31.79
2018-09-24T12:00:38.331Z,32.09
2018-09-24T12:01:38.308Z,32.37
2018-09-24T12:02:38.437Z,32.79
2018-09-24T12:03:38.368Z,32.98
2018-09-24T12:04:38.372Z,33.28
2018-09-24T12:05:38.393Z,33.57
2018-09-24T12:06:38.420Z,34.07
2018-09-24T12:07:38.723Z,34.50
2018-09-24T12:08:38.462Z,35.10
2018-09-24T12:09:38.614Z,35.74
2018-09-24T12:10:38.614Z,36.25
2018-09-24T12:11:38.548Z,36.39
2018-09-24T12:12:38.711Z,36.47
2018-09-24T12:13:38.591Z,36.55
2018-09-24T12:14:38.611Z,36.72
2018-09-24T12:15:38.646Z,37.04
2018-09-24T12:16:38.659Z,36.97
2018-09-24T12:17:42.434Z,36.89
2018-09-24T12:18:38.706Z,37.10
2018-09-24T12:19:38.864Z,37.57
2018-09-24T12:20:38.887Z,37.66
2018-09-24T12:21:38.823Z,37.82
2018-09-24T12:22:38.869Z,37.98
2018-09-24T12:23:38.962Z,38.35
2018-09-24T12:24:39.004Z,38.62
2018-09-24T12:25:38.893Z,38.88
2018-09-24T12:26:38.908Z,39.22
2018-09-24T12:27:38.956Z,39.49
2018-09-24T12:28:38.967Z,39.60
2018-09-24T12:29:39.161Z,39.76
2018-09-24T12:30:39.032Z,39.60
2018-09-24T12:31:39.170Z,39.78
2018-09-24T12:32:39.199Z,40.08
2018-09-24T12:33:39.106Z,40.40
2018-09-24T12:34:39.226Z,40.69
2018-09-24T12:35:39.161Z,40.76
2018-09-24T12:36:39.184Z,40.59
2018-09-24T12:37:39.331Z,40.29
2018-09-24T12:38:39.360Z,40.07
2018-09-24T12:39:39.362Z,39.91
2018-09-24T12:40:39.329Z,39.83
2018-09-24T12:41:39.312Z,39.86
2018-09-24T12:42:39.470Z,39.73
2018-09-24T12:43:39.370Z,39.45
2018-09-24T12:44:39.577Z,38.96
2018-09-24T12:45:39.449Z,38.34
2018-09-24T12:46:39.461Z,37.80
2018-09-24T12:47:39.612Z,37.33
2018-09-24T12:48:39.510Z,36.73
2018-09-24T12:49:39.765Z,36.35
2018-09-24T12:50:39.587Z,36.01
2018-09-24T12:51:39.595Z,35.71
2018-09-24T12:52:39.618Z,35.31